createdAt,value
2023-04-12T00:01:11.597Z,93.40
2023-04-12T00:03:42.295Z,93.40
2023-04-12T00:06:13.726Z,93.50
2023-04-12T00:08:47.338Z,93.50
2023-04-12T00:11:19.417Z,93.30
2023-04-12T00:13:49.919Z,93.20
2023-04-12T00:16:21.175Z,93.20
2023-04-12T00:18:52.415Z,93.40
2023-04-12T00:21:24.114Z,93.30
2023-04-12T00:23:57.399Z,93.30
2023-04-12T00:26:28.566Z,93.60
2023-04-12T00:28:59.148Z,93.30
2023-04-12T00:31:30.440Z,93.30
2023-04-12T00:34:01.067Z,93.20
2023-04-12T00:36:32.308Z,93.20
2023-04-12T00:39:05.708Z,93.30
2023-04-12T00:41:39.323Z,93.40
2023-04-12T00:44:10.364Z,93.30
2023-04-12T00:46:41.763Z,93.30
2023-04-12T00:49:12.645Z,93.30
2023-04-12T00:51:44.650Z,93.40
2023-04-12T00:54:20.654Z,93.40
2023-04-12T00:56:51.893Z,93.50
2023-04-12T00:59:23.676Z,93.50
2023-04-12T01:01:54.618Z,93.50
2023-04-12T01:04:26.784Z,93.50
2023-04-12T01:07:05.616Z,93.60
2023-04-12T01:09:43.925Z,93.60
2023-04-12T01:12:19.848Z,93.60
2023-04-12T01:14:54.758Z,93.50
2023-04-12T01:17:29.723Z,93.50
2023-04-12T01:20:06.679Z,93.40
2023-04-12T01:22:49.037Z,93.40
2023-04-12T01:25:30.801Z,93.50
2023-04-12T01:28:06.252Z,93.60
2023-04-12T01:30:37.276Z,93.60
2023-04-12T01:33:09.778Z,93.60
2023-04-12T01:35:41.444Z,93.70
2023-04-12T01:38:12.850Z,93.50
2023-04-12T01:40:43.491Z,93.50
2023-04-12T01:43:18.630Z,93.50
2023-04-12T01:45:49.190Z,93.50
2023-04-12T01:48:20.574Z,93.50
2023-04-12T01:50:55.064Z,93.60
2023-04-12T01:53:26.571Z,93.50
2023-04-12T01:56:01.824Z,93.50
2023-04-12T01:58:36.736Z,93.50
2023-04-12T02:01:08.048Z,93.40
2023-04-12T02:03:44.147Z,93.40
2023-04-12T02:06:15.233Z,93.40
2023-04-12T02:08:46.286Z,93.40
2023-04-12T02:11:17.834Z,93.30
2023-04-12T02:13:51.446Z,93.40
2023-04-12T02:16:23.331Z,93.30
2023-04-12T02:18:54.517Z,93.30
2023-04-12T02:21:25.121Z,93.50
2023-04-12T02:23:56.298Z,93.50
2023-04-12T02:26:27.877Z,93.60
2023-04-12T02:29:01.582Z,93.60
2023-04-12T02:31:33.652Z,93.60
2023-04-12T02:34:05.378Z,93.50
2023-04-12T02:36:38.223Z,93.80
2023-04-12T02:39:10.665Z,93.50
2023-04-12T02:41:42.110Z,93.50
2023-04-12T02:44:19.562Z,93.40
2023-04-12T02:47:03.155Z,93.50
2023-04-12T02:49:36.284Z,93.50
2023-04-12T02:52:07.347Z,93.50
2023-04-12T02:54:45.971Z,93.40
2023-04-12T02:57:24.283Z,93.30
2023-04-12T02:59:57.917Z,93.40
2023-04-12T03:02:43.683Z,93.50
2023-04-12T03:05:22.724Z,93.40
2023-04-12T03:07:58.765Z,93.40
2023-04-12T03:10:43.261Z,93.20
2023-04-12T03:13:14.794Z,93.20
2023-04-12T03:15:53.311Z,93.30
2023-04-12T03:18:24.421Z,93.20
2023-04-12T03:20:57.391Z,93.20
2023-04-12T03:23:28.817Z,93.10
2023-04-12T03:26:10.231Z,93.20
2023-04-12T03:28:41.626Z,93.20
2023-04-12T03:31:15.798Z,93.30
2023-04-12T03:33:49.760Z,93.30
2023-04-12T03:36:24.948Z,93.30
2023-04-12T03:39:05.110Z,93.30
2023-04-12T03:41:38.650Z,93.30
2023-04-12T03:44:09.910Z,93.40
2023-04-12T03:46:43.969Z,93.20
2023-04-12T03:49:17.140Z,93.10
2023-04-12T03:51:51.136Z,93.10
2023-04-12T03:54:22.264Z,93.20
2023-04-12T03:57:04.951Z,93.10
2023-04-12T03:59:48.702Z,93.10
2023-04-12T04:02:27.404Z,93.20
2023-04-12T04:05:02.755Z,93.20
2023-04-12T04:07:34.914Z,93.20
2023-04-12T04:10:07.602Z,93.20
2023-04-12T04:12:42.010Z,93.20
2023-04-12T04:15:17.702Z,93.20
2023-04-12T04:17:51.642Z,93.20
2023-04-12T04:20:23.276Z,93.20
2023-04-12T04:22:56.040Z,93.30
2023-04-12T04:25:30.219Z,93.20
2023-04-12T04:28:05.883Z,93.30
2023-04-12T04:30:42.397Z,93.10
2023-04-12T04:33:24.933Z,93.10
2023-04-12T04:35:59.570Z,93.20
2023-04-12T04:38:33.092Z,93.10
2023-04-12T04:41:26.372Z,93.10
2023-04-12T04:44:05.151Z,93.20
2023-04-12T04:46:38.290Z,93.20
2023-04-12T04:49:13.261Z,93.20
2023-04-12T04:51:43.886Z,93.10
2023-04-12T04:54:16.980Z,93.00
2023-04-12T04:56:48.111Z,93.10
2023-04-12T04:59:21.226Z,92.80
2023-04-12T05:01:52.550Z,92.60
2023-04-12T05:04:26.733Z,92.70
2023-04-12T05:06:59.949Z,92.60
2023-04-12T05:09:31.960Z,92.60
2023-04-12T05:12:03.778Z,92.60
2023-04-12T05:14:46.727Z,92.50
2023-04-12T05:17:21.439Z,92.30
2023-04-12T05:19:55.423Z,92.20
2023-04-12T05:22:26.280Z,92.10
2023-04-12T05:24:57.410Z,92.30
2023-04-12T05:27:33.310Z,92.30
2023-04-12T05:30:05.683Z,92.30
2023-04-12T05:32:39.462Z,92.20
2023-04-12T05:35:14.035Z,91.90
2023-04-12T05:37:46.745Z,91.90
2023-04-12T05:40:18.164Z,92.00
2023-04-12T05:42:49.648Z,92.10
2023-04-12T05:45:21.281Z,92.20
2023-04-12T05:47:52.159Z,91.90
2023-04-12T05:50:25.841Z,91.60
2023-04-12T05:52:57.987Z,91.80
2023-04-12T05:55:34.871Z,92.00
2023-04-12T05:58:06.890Z,92.00
2023-04-12T06:00:38.833Z,92.00
2023-04-12T06:03:11.042Z,92.00
2023-04-12T06:05:45.449Z,92.20
2023-04-12T06:08:16.904Z,91.80
2023-04-12T06:10:47.870Z,91.90
2023-04-12T06:13:18.877Z,92.10
2023-04-12T06:15:50.383Z,92.10
2023-04-12T06:18:21.626Z,92.10
2023-04-12T06:20:56.092Z,92.10
2023-04-12T06:23:27.607Z,91.80
2023-04-12T06:25:59.252Z,92.10
2023-04-12T06:28:31.481Z,91.70
2023-04-12T06:31:02.492Z,91.50
2023-04-12T06:33:38.063Z,91.50
2023-04-12T06:36:16.809Z,91.70
2023-04-12T06:38:47.426Z,91.70
2023-04-12T06:41:19.234Z,91.40
2023-04-12T06:43:49.813Z,90.90
2023-04-12T06:46:28.597Z,90.80
2023-04-12T06:48:59.503Z,91.00
2023-04-12T06:51:34.880Z,91.20
2023-04-12T06:54:05.640Z,91.00
2023-04-12T06:56:36.825Z,90.80
2023-04-12T06:59:07.651Z,90.80
2023-04-12T07:01:40.315Z,90.70
2023-04-12T07:04:12.019Z,90.30
2023-04-12T07:06:45.940Z,90.10
2023-04-12T07:09:17.813Z,89.00
2023-04-12T07:11:51.481Z,89.20
2023-04-12T07:14:23.046Z,89.90
2023-04-12T07:16:54.753Z,90.20
2023-04-12T07:19:26.241Z,90.50
2023-04-12T07:22:02.953Z,90.00
2023-04-12T07:24:35.347Z,90.40
2023-04-12T07:27:12.413Z,90.10
2023-04-12T07:29:45.600Z,90.00
2023-04-12T07:32:17.949Z,88.90
2023-04-12T07:37:57.829Z,86.80
2023-04-12T07:40:33.299Z,86.70
2023-04-12T07:43:19.265Z,87.00
2023-04-12T07:45:52.125Z,88.10
2023-04-12T07:48:22.680Z,88.70
2023-04-12T07:50:53.717Z,89.10
2023-04-12T07:53:27.992Z,88.50
2023-04-12T07:55:59.577Z,88.90
2023-04-12T07:58:30.181Z,87.80
2023-04-12T08:01:01.504Z,88.80
2023-04-12T08:03:32.350Z,89.10
2023-04-12T08:06:03.388Z,89.00
2023-04-12T08:08:37.237Z,88.20
2023-04-12T08:11:08.971Z,87.90
2023-04-12T08:13:39.642Z,88.00
2023-04-12T08:16:13.325Z,87.70
2023-04-12T08:18:44.016Z,87.50
2023-04-12T08:21:14.901Z,87.80
2023-04-12T08:23:48.970Z,87.80
2023-04-12T08:26:20.326Z,88.40
2023-04-12T08:28:51.078Z,88.50
2023-04-12T08:31:22.374Z,89.20
2023-04-12T08:33:53.014Z,89.30
2023-04-12T08:36:23.965Z,87.20
2023-04-12T08:38:57.280Z,87.40
2023-04-12T08:41:28.419Z,86.50
2023-04-12T08:43:59.698Z,85.30
2023-04-12T08:46:31.388Z,84.70
2023-04-12T08:49:02.005Z,84.10
2023-04-12T08:51:33.588Z,83.60
2023-04-12T08:54:08.159Z,83.60
2023-04-12T08:56:40.925Z,83.30
2023-04-12T08:59:13.666Z,82.60
2023-04-12T09:01:44.846Z,81.50
2023-04-12T09:04:18.494Z,80.40
2023-04-12T09:06:50.092Z,81.30
2023-04-12T09:09:23.291Z,80.40
2023-04-12T09:11:54.224Z,79.70
2023-04-12T09:14:25.489Z,80.00
2023-04-12T09:16:56.782Z,77.80
2023-04-12T09:19:38.331Z,78.50
2023-04-12T09:22:09.530Z,78.70
2023-04-12T09:24:53.714Z,77.40
2023-04-12T09:27:25.716Z,77.20
2023-04-12T09:30:09.403Z,76.70
2023-04-12T09:32:40.508Z,75.50
2023-04-12T09:35:12.020Z,76.30
2023-04-12T09:37:43.443Z,76.10
2023-04-12T09:40:17.724Z,75.20
2023-04-12T09:42:55.690Z,74.90
2023-04-12T09:45:28.449Z,74.80
2023-04-12T09:48:00.695Z,74.10
2023-04-12T09:50:33.905Z,72.00
2023-04-12T09:53:06.559Z,73.90
2023-04-12T09:55:39.865Z,73.10
2023-04-12T09:58:10.846Z,73.60
2023-04-12T10:00:41.965Z,73.80
2023-04-12T10:03:13.171Z,70.70
2023-04-12T10:05:44.861Z,69.60
2023-04-12T10:08:18.084Z,70.70
2023-04-12T10:10:51.606Z,70.50
2023-04-12T10:13:22.949Z,71.00
2023-04-12T10:15:54.235Z,69.50
2023-04-12T10:18:27.242Z,70.30
2023-04-12T10:20:58.630Z,69.10
2023-04-12T10:23:31.591Z,69.50
2023-04-12T10:26:06.020Z,68.00
2023-04-12T10:28:39.558Z,68.10
2023-04-12T10:31:24.943Z,67.90
2023-04-12T10:33:58.153Z,67.30
2023-04-12T10:36:43.598Z,64.70
2023-04-12T10:39:15.617Z,61.80
2023-04-12T10:42:18.094Z,63.70
2023-04-12T10:44:49.305Z,63.40
2023-04-12T10:47:19.996Z,62.10
2023-04-12T10:50:08.878Z,63.40
2023-04-12T10:52:42.057Z,62.40
2023-04-12T10:55:27.745Z,61.80
2023-04-12T10:58:01.135Z,60.50
2023-04-12T11:01:05.450Z,60.00
2023-04-12T11:03:36.159Z,60.10
2023-04-12T11:06:24.168Z,60.70
2023-04-12T11:09:25.658Z,59.90
2023-04-12T11:12:00.233Z,59.50
2023-04-12T11:14:38.446Z,59.20
2023-04-12T11:17:24.738Z,58.40
2023-04-12T11:20:00.109Z,58.80
2023-04-12T11:22:32.232Z,58.60
2023-04-12T11:25:04.262Z,59.80
2023-04-12T11:27:38.239Z,59.10
2023-04-12T11:30:12.967Z,58.10
2023-04-12T11:32:47.648Z,58.90
2023-04-12T11:35:20.666Z,58.20
2023-04-12T11:37:51.602Z,59.60
2023-04-12T11:40:24.659Z,59.10
2023-04-12T11:42:57.925Z,58.60
2023-04-12T11:45:32.352Z,58.20
2023-04-12T11:48:03.518Z,58.20
2023-04-12T11:50:34.458Z,56.90
2023-04-12T11:53:16.298Z,57.40
2023-04-12T11:55:50.843Z,56.20
2023-04-12T11:58:25.683Z,56.90
2023-04-12T12:01:00.250Z,57.10
2023-04-12T12:03:31.531Z,56.80
2023-04-12T12:06:02.539Z,56.20
2023-04-12T12:08:33.946Z,56.00
2023-04-12T12:11:08.553Z,56.50
2023-04-12T12:13:49.772Z,56.20
2023-04-12T12:16:27.452Z,55.60
2023-04-12T12:18:58.896Z,54.10
2023-04-12T12:21:30.019Z,54.60
2023-04-12T12:24:01.325Z,54.80
2023-04-12T12:26:32.163Z,54.90
2023-04-12T12:29:03.438Z,55.20
2023-04-12T12:31:36.712Z,55.30
2023-04-12T12:34:09.190Z,55.90
2023-04-12T12:36:40.403Z,57.10
2023-04-12T12:39:12.368Z,56.60
2023-04-12T12:41:43.512Z,56.40
2023-04-12T12:44:14.520Z,56.90
2023-04-12T12:49:21.579Z,56.20
2023-04-12T12:51:53.454Z,56.10
2023-04-12T12:54:39.528Z,56.00
2023-04-12T12:57:12.003Z,60.70
2023-04-12T12:59:42.951Z,64.90
2023-04-12T13:02:18.570Z,66.50
2023-04-12T13:04:50.227Z,67.20
2023-04-12T13:07:20.945Z,67.20
2023-04-12T13:09:51.999Z,67.50
2023-04-12T13:12:22.554Z,67.10
2023-04-12T13:15:00.274Z,67.10
2023-04-12T13:17:46.436Z,67.70
2023-04-12T13:20:17.516Z,68.10
2023-04-12T13:22:48.530Z,68.20
2023-04-12T13:25:23.693Z,68.00
2023-04-12T13:27:57.175Z,67.90
2023-04-12T13:30:28.899Z,68.10
2023-04-12T13:33:02.106Z,68.40
2023-04-12T13:35:33.122Z,69.30
2023-04-12T13:38:03.876Z,69.90
2023-04-12T13:40:35.384Z,69.60
2023-04-12T13:43:07.943Z,70.00
2023-04-12T13:45:39.200Z,70.10
2023-04-12T13:48:12.687Z,69.90
2023-04-12T13:50:43.742Z,69.90
2023-04-12T13:53:14.448Z,70.40
2023-04-12T13:55:50.454Z,71.70
2023-04-12T13:58:21.486Z,72.90
2023-04-12T14:00:54.391Z,74.00
2023-04-12T14:03:27.645Z,78.40
2023-04-12T14:05:58.673Z,80.60
2023-04-12T14:08:29.276Z,80.10
2023-04-12T14:11:00.343Z,80.90
2023-04-12T14:13:31.066Z,82.00
2023-04-12T14:16:02.139Z,81.80
2023-04-12T14:18:35.396Z,81.80
2023-04-12T14:21:06.692Z,81.50
2023-04-12T14:23:37.246Z,82.90
2023-04-12T14:26:08.523Z,82.90
2023-04-12T14:28:39.121Z,83.90
2023-04-12T14:31:10.576Z,84.40
2023-04-12T14:33:43.882Z,85.00
2023-04-12T14:36:15.300Z,85.20
2023-04-12T14:38:45.827Z,85.30
2023-04-12T14:41:17.359Z,87.00
2023-04-12T14:43:47.924Z,90.20
2023-04-12T14:46:21.070Z,91.00
2023-04-12T14:48:55.837Z,91.60
2023-04-12T14:51:28.109Z,91.80
2023-04-12T14:53:58.917Z,92.80
2023-04-12T14:56:31.209Z,92.30
2023-04-12T14:59:02.286Z,92.10
2023-04-12T15:01:34.102Z,92.00
2023-04-12T15:04:07.594Z,91.90
2023-04-12T15:06:42.758Z,92.30
2023-04-12T15:09:13.562Z,92.20
2023-04-12T15:11:47.357Z,91.90
2023-04-12T15:14:20.234Z,92.10
2023-04-12T15:16:56.003Z,92.50
2023-04-12T15:19:29.276Z,93.20
2023-04-12T15:22:00.985Z,93.30
2023-04-12T15:24:31.771Z,93.10
2023-04-12T15:27:05.835Z,92.80
2023-04-12T15:29:37.440Z,92.80
2023-04-12T15:32:09.075Z,92.90
2023-04-12T15:34:42.291Z,93.20
2023-04-12T15:37:13.465Z,93.10
2023-04-12T15:39:44.375Z,93.00
2023-04-12T15:42:15.860Z,93.40
2023-04-12T15:44:47.014Z,93.30
2023-04-12T15:47:18.239Z,93.10
2023-04-12T15:49:54.815Z,93.30
2023-04-12T15:52:26.194Z,94.00
2023-04-12T15:54:56.915Z,93.80
2023-04-12T15:57:28.009Z,94.00
2023-04-12T15:59:59.932Z,94.10
2023-04-12T16:02:31.717Z,93.90
2023-04-12T16:05:05.672Z,93.20
2023-04-12T16:07:37.045Z,93.30
2023-04-12T16:10:08.567Z,93.20
2023-04-12T16:12:39.556Z,92.80
2023-04-12T16:15:11.102Z,92.70
2023-04-12T16:17:42.649Z,92.10
2023-04-12T16:20:20.500Z,92.20
2023-04-12T16:22:54.615Z,91.90
2023-04-12T16:25:27.605Z,92.00
2023-04-12T16:28:02.639Z,91.90
2023-04-12T16:30:34.289Z,91.80
2023-04-12T16:33:05.331Z,91.90
2023-04-12T16:35:38.595Z,92.10
2023-04-12T16:38:09.494Z,92.40
2023-04-12T16:40:40.173Z,92.50
2023-04-12T16:43:11.519Z,92.60
2023-04-12T16:45:45.827Z,92.60
2023-04-12T16:48:17.239Z,92.70
2023-04-12T16:50:50.815Z,92.60
2023-04-12T16:53:21.705Z,92.60
2023-04-12T16:55:52.239Z,92.60
2023-04-12T16:58:24.575Z,93.00
2023-04-12T17:00:56.279Z,93.20
2023-04-12T17:03:27.973Z,93.30
2023-04-12T17:06:02.631Z,93.50
2023-04-12T17:08:34.068Z,93.40
2023-04-12T17:11:04.710Z,93.20
2023-04-12T17:13:37.094Z,93.20
2023-04-12T17:16:08.076Z,93.20
2023-04-12T17:18:40.548Z,93.40
2023-04-12T17:21:14.546Z,93.00
2023-04-12T17:23:45.836Z,93.00
2023-04-12T17:26:16.920Z,93.10
2023-04-12T17:28:49.242Z,92.90
2023-04-12T17:31:22.896Z,92.80
2023-04-12T17:33:54.429Z,92.90
2023-04-12T17:36:31.703Z,92.80
2023-04-12T17:39:05.062Z,92.80
2023-04-12T17:41:36.872Z,92.90
2023-04-12T17:44:08.289Z,92.60
2023-04-12T17:46:38.898Z,92.50
2023-04-12T17:49:10.307Z,92.60
2023-04-12T17:51:43.507Z,92.50
2023-04-12T17:54:14.508Z,92.60
2023-04-12T17:56:45.235Z,92.70
2023-04-12T17:59:16.116Z,92.70
2023-04-12T18:01:47.369Z,92.70
2023-04-12T18:04:18.410Z,92.60
2023-04-12T18:06:52.464Z,92.70
2023-04-12T18:09:23.404Z,92.70
2023-04-12T18:11:54.289Z,92.80
2023-04-12T18:14:25.623Z,93.20
2023-04-12T18:16:56.248Z,92.70
2023-04-12T18:19:27.390Z,92.80
2023-04-12T18:22:00.727Z,92.70
2023-04-12T18:24:32.040Z,92.70
2023-04-12T18:27:03.188Z,92.80
2023-04-12T18:29:34.312Z,93.20
2023-04-12T18:32:05.037Z,93.00
2023-04-12T18:34:36.830Z,92.90
2023-04-12T18:37:17.265Z,92.70
2023-04-12T18:39:53.054Z,92.20
2023-04-12T18:42:24.212Z,92.00
2023-04-12T18:44:56.747Z,92.20
2023-04-12T18:47:28.535Z,92.30
2023-04-12T18:50:01.002Z,92.30
2023-04-12T18:52:35.035Z,92.40
2023-04-12T18:55:06.543Z,92.50
2023-04-12T18:57:37.792Z,92.50
2023-04-12T19:00:13.874Z,92.70
2023-04-12T19:02:44.989Z,92.80
2023-04-12T19:05:16.454Z,93.10
2023-04-12T19:07:52.384Z,93.40
2023-04-12T19:10:28.315Z,93.50
2023-04-12T19:12:59.140Z,93.40
2023-04-12T19:15:30.227Z,93.30
2023-04-12T19:18:01.509Z,93.20
2023-04-12T19:20:32.710Z,93.20
2023-04-12T19:23:06.465Z,93.10
2023-04-12T19:25:38.026Z,93.00
2023-04-12T19:28:08.787Z,92.80
2023-04-12T19:30:41.533Z,92.70
2023-04-12T19:33:13.383Z,92.70
2023-04-12T19:35:44.957Z,92.70
2023-04-12T19:38:20.577Z,92.70
2023-04-12T19:40:54.793Z,92.60
2023-04-12T19:43:26.246Z,92.60
2023-04-12T19:45:58.666Z,92.80
2023-04-12T19:48:29.517Z,92.80
2023-04-12T19:51:00.965Z,92.90
2023-04-12T19:53:34.419Z,92.90
2023-04-12T19:56:08.301Z,92.80
2023-04-12T19:58:41.126Z,92.80
2023-04-12T20:01:13.999Z,92.80
2023-04-12T20:03:46.537Z,92.70
2023-04-12T20:06:17.586Z,92.60
2023-04-12T20:08:50.918Z,92.60
2023-04-12T20:11:22.310Z,92.70
2023-04-12T20:13:55.302Z,92.70
2023-04-12T20:16:27.294Z,92.80
2023-04-12T20:18:59.379Z,92.60
2023-04-12T20:21:32.438Z,92.60
2023-04-12T20:24:08.406Z,92.60
2023-04-12T20:26:39.764Z,92.60
2023-04-12T20:29:10.936Z,92.50
2023-04-12T20:31:42.053Z,92.50
2023-04-12T20:34:12.910Z,92.40
2023-04-12T20:36:44.229Z,92.30
2023-04-12T20:39:29.003Z,92.30
2023-04-12T20:42:01.548Z,92.10
2023-04-12T20:44:33.131Z,92.10
2023-04-12T20:47:04.403Z,92.40
2023-04-12T20:49:36.311Z,92.60
2023-04-12T20:52:07.441Z,92.80
2023-04-12T20:54:41.900Z,92.90
2023-04-12T20:57:14.377Z,93.00
2023-04-12T20:59:45.632Z,93.00
2023-04-12T21:02:16.957Z,93.00
2023-04-12T21:04:48.112Z,92.90
2023-04-12T21:07:20.564Z,92.80
2023-04-12T21:09:54.423Z,92.80
2023-04-12T21:12:26.141Z,92.90
2023-04-12T21:14:57.941Z,92.80
2023-04-12T21:17:30.138Z,92.50
2023-04-12T21:20:01.525Z,92.30
2023-04-12T21:22:32.857Z,92.20
2023-04-12T21:25:07.638Z,92.10
2023-04-12T21:27:39.586Z,92.30
2023-04-12T21:30:12.898Z,92.10
2023-04-12T21:32:44.230Z,92.10
2023-04-12T21:35:16.703Z,92.20
2023-04-12T21:37:47.628Z,92.20
2023-04-12T21:40:20.861Z,92.30
2023-04-12T21:42:52.779Z,92.40
2023-04-12T21:45:24.568Z,92.60
2023-04-12T21:47:56.235Z,92.80
2023-04-12T21:50:26.909Z,92.90
2023-04-12T21:52:58.085Z,93.00
2023-04-12T21:55:32.296Z,93.20
2023-04-12T21:58:03.981Z,93.40
2023-04-12T22:00:35.303Z,93.50
2023-04-12T22:03:07.671Z,93.70
2023-04-12T22:05:40.165Z,94.10
2023-04-12T22:08:12.813Z,94.20
2023-04-12T22:10:46.875Z,94.40
2023-04-12T22:13:18.815Z,94.50
2023-04-12T22:15:49.328Z,94.70
2023-04-12T22:18:20.792Z,94.90
2023-04-12T22:20:51.622Z,95.00
2023-04-12T22:23:22.624Z,95.10
2023-04-12T22:25:58.669Z,95.40
2023-04-12T22:28:29.674Z,95.20
2023-04-12T22:31:00.980Z,95.40
2023-04-12T22:33:33.752Z,95.40
2023-04-12T22:36:06.330Z,95.40
2023-04-12T22:38:40.020Z,95.50
2023-04-12T22:41:18.500Z,95.70
2023-04-12T22:44:01.723Z,95.80
2023-04-12T22:46:39.265Z,95.80
2023-04-12T22:49:10.426Z,96.10
2023-04-12T22:51:41.686Z,96.20
2023-04-12T22:54:12.720Z,96.30
2023-04-12T22:56:46.036Z,96.30
2023-04-12T22:59:17.914Z,96.40
2023-04-12T23:01:50.573Z,96.50
2023-04-12T23:04:21.623Z,96.50
2023-04-12T23:06:55.617Z,96.60
2023-04-12T23:09:27.615Z,96.70
2023-04-12T23:12:02.130Z,96.80
2023-04-12T23:14:33.340Z,96.90
2023-04-12T23:17:03.942Z,97.00
2023-04-12T23:19:34.909Z,97.10
2023-04-12T23:22:06.475Z,97.10
2023-04-12T23:24:37.489Z,97.20
2023-04-12T23:27:10.893Z,97.20
2023-04-12T23:29:42.655Z,97.30
2023-04-12T23:32:14.357Z,97.30
2023-04-12T23:34:46.769Z,97.30
2023-04-12T23:37:17.485Z,97.40
2023-04-12T23:39:48.384Z,97.40
2023-04-12T23:42:22.538Z,97.40
2023-04-12T23:44:54.592Z,97.40
2023-04-12T23:47:25.257Z,97.50
2023-04-12T23:49:56.897Z,97.50
2023-04-12T23:52:27.470Z,97.50
2023-04-12T23:54:58.702Z,97.80
2023-04-12T23:57:32.688Z,97.50
